createdAt,value
2023-04-02T00:01:36.998Z,102099.94
2023-04-02T00:04:30.206Z,102100.56
2023-04-02T00:07:36.178Z,102106.48
2023-04-02T00:10:41.528Z,102118.30
2023-04-02T00:13:53.442Z,102126.70
2023-04-02T00:16:43.878Z,102132.14
2023-04-02T00:19:58.337Z,102129.75
2023-04-02T00:22:53.912Z,102125.07
2023-04-02T00:26:07.384Z,102131.86
2023-04-02T00:29:19.068Z,102135.42
2023-04-02T00:32:31.750Z,102135.12
2023-04-02T00:35:33.465Z,102128.10
2023-04-02T00:38:38.686Z,102122.98
2023-04-02T00:41:39.080Z,102133.88
2023-04-02T00:44:50.271Z,102146.44
2023-04-02T00:47:41.129Z,102155.34
2023-04-02T00:50:50.503Z,102161.52
2023-04-02T00:53:52.083Z,102171.25
2023-04-02T00:56:46.441Z,102179.77
2023-04-02T00:59:56.226Z,102177.70
2023-04-02T01:03:30.448Z,102164.27
2023-04-02T01:06:34.371Z,102162.89
2023-04-02T01:09:39.667Z,102157.77
2023-04-02T01:12:38.208Z,102156.45
2023-04-02T01:15:52.297Z,102168.10
2023-04-02T01:19:07.639Z,102179.14
2023-04-02T01:22:10.424Z,102171.49
2023-04-02T01:25:25.161Z,102165.64
2023-04-02T01:28:29.658Z,102173.37
2023-04-02T01:31:23.011Z,102173.57
2023-04-02T01:34:19.181Z,102172.86
2023-04-02T01:37:36.852Z,102168.92
2023-04-02T01:40:40.273Z,102167.44
2023-04-02T01:43:48.598Z,102180.08
2023-04-02T01:46:51.161Z,102181.45
2023-04-02T01:49:50.677Z,102183.58
2023-04-02T01:53:02.498Z,102181.88
2023-04-02T01:56:13.268Z,102187.27
2023-04-02T01:59:11.166Z,102196.13
2023-04-02T02:02:04.171Z,102209.74
2023-04-02T02:04:55.398Z,102220.53
2023-04-02T02:08:07.278Z,102221.01
2023-04-02T02:11:09.276Z,102223.41
2023-04-02T02:14:04.044Z,102229.08
2023-04-02T02:17:02.321Z,102231.80
2023-04-02T02:20:06.983Z,102237.77
2023-04-02T02:23:00.339Z,102243.23
2023-04-02T02:26:13.222Z,102247.19
2023-04-02T02:29:12.966Z,102254.48
2023-04-02T02:32:24.965Z,102267.02
2023-04-02T02:35:24.520Z,102274.83
2023-04-02T02:38:32.005Z,102271.48
2023-04-02T02:41:44.384Z,102272.66
2023-04-02T02:44:56.144Z,102284.06
2023-04-02T02:47:48.113Z,102285.59
2023-04-02T02:50:44.508Z,102279.66
2023-04-02T02:53:51.445Z,102286.74
2023-04-02T02:56:56.280Z,102292.27
2023-04-02T03:00:10.174Z,102292.55
2023-04-02T03:03:07.721Z,102292.16
2023-04-02T03:06:20.957Z,102290.96
2023-04-02T03:09:38.247Z,102297.84
2023-04-02T03:12:51.538Z,102306.41
2023-04-02T03:16:03.973Z,102304.58
2023-04-02T03:19:12.269Z,102304.38
2023-04-02T03:22:19.239Z,102313.23
2023-04-02T03:25:34.645Z,102317.36
2023-04-02T03:28:32.544Z,102317.67
2023-04-02T03:31:28.470Z,102319.11
2023-04-02T03:34:35.315Z,102325.20
2023-04-02T03:37:42.248Z,102330.19
2023-04-02T03:40:57.234Z,102335.93
2023-04-02T03:43:55.235Z,102339.08
2023-04-02T03:47:00.690Z,102342.81
2023-04-02T03:49:56.858Z,102343.86
2023-04-02T03:53:06.938Z,102341.14
2023-04-02T03:56:23.130Z,102345.11
2023-04-02T03:59:28.447Z,102352.89
2023-04-02T04:02:42.829Z,102352.33
2023-04-02T04:05:55.385Z,102351.34
2023-04-02T04:08:51.946Z,102348.64
2023-04-02T04:11:58.456Z,102348.66
2023-04-02T04:15:10.915Z,102347.85
2023-04-02T04:18:30.018Z,102346.98
2023-04-02T04:21:45.341Z,102346.61
2023-04-02T04:24:57.436Z,102350.59
2023-04-02T04:28:07.881Z,102351.27
2023-04-02T04:31:18.186Z,102353.90
2023-04-02T04:34:25.354Z,102356.84
2023-04-02T04:37:33.795Z,102360.06
2023-04-02T04:40:50.533Z,102361.02
2023-04-02T04:44:07.107Z,102363.30
2023-04-02T04:47:13.267Z,102370.81
2023-04-02T04:50:28.683Z,102374.20
2023-04-02T04:53:30.562Z,102374.30
2023-04-02T04:56:35.180Z,102372.84
2023-04-02T04:59:54.115Z,102371.11
2023-04-02T05:03:03.708Z,102377.89
2023-04-02T05:06:01.720Z,102383.48
2023-04-02T05:09:16.176Z,102383.48
2023-04-02T05:12:23.758Z,102392.62
2023-04-02T05:15:30.764Z,102402.90
2023-04-02T05:18:34.078Z,102405.73
2023-04-02T05:21:35.648Z,102407.27
2023-04-02T05:24:52.777Z,102409.89
2023-04-02T05:28:06.819Z,102414.02
2023-04-02T05:31:21.322Z,102421.36
2023-04-02T05:34:27.265Z,102429.64
2023-04-02T05:37:31.891Z,102425.96
2023-04-02T05:40:45.533Z,102422.20
2023-04-02T05:44:00.677Z,102428.63
2023-04-02T05:47:05.255Z,102436.41
2023-04-02T05:50:21.592Z,102440.85
2023-04-02T05:53:18.200Z,102446.36
2023-04-02T05:56:20.441Z,102451.02
2023-04-02T05:59:25.156Z,102456.50
2023-04-02T06:02:40.623Z,102451.63
2023-04-02T06:05:44.714Z,102455.19
2023-04-02T06:08:58.774Z,102458.77
2023-04-02T06:12:19.699Z,102470.73
2023-04-02T06:15:14.685Z,102475.13
2023-04-02T06:18:28.713Z,102483.55
2023-04-02T06:21:33.059Z,102486.02
2023-04-02T06:24:46.047Z,102484.21
2023-04-02T06:27:38.133Z,102490.09
2023-04-02T06:30:34.967Z,102488.73
2023-04-02T06:33:38.851Z,102498.61
2023-04-02T06:36:43.028Z,102503.67
2023-04-02T06:39:36.708Z,102506.30
2023-04-02T06:42:32.912Z,102511.42
2023-04-02T06:45:31.367Z,102516.10
2023-04-02T06:48:45.973Z,102515.84
2023-04-02T06:51:52.605Z,102521.55
2023-04-02T06:55:07.077Z,102525.20
2023-04-02T06:58:08.468Z,102528.19
2023-04-02T07:01:07.225Z,102531.15
2023-04-02T07:04:04.478Z,102534.80
2023-04-02T07:07:10.839Z,102536.84
2023-04-02T07:10:32.264Z,102545.04
2023-04-02T07:13:42.597Z,102549.08
2023-04-02T07:16:52.997Z,102551.41
2023-04-02T07:20:03.444Z,102551.45
2023-04-02T07:23:09.704Z,102554.74
2023-04-02T07:26:15.462Z,102562.21
2023-04-02T07:29:20.481Z,102566.96
2023-04-02T07:32:19.699Z,102570.90
2023-04-02T07:35:10.543Z,102573.20
2023-04-02T07:38:01.136Z,102574.23
2023-04-02T07:40:51.726Z,102572.41
2023-04-02T07:44:11.531Z,102569.00
2023-04-02T07:47:29.930Z,102574.19
2023-04-02T07:50:37.989Z,102578.05
2023-04-02T07:53:37.309Z,102581.27
2023-04-02T07:56:39.487Z,102585.68
2023-04-02T07:59:40.858Z,102586.26
2023-04-02T08:02:39.508Z,102593.63
2023-04-02T08:05:32.363Z,102597.09
2023-04-02T08:08:36.665Z,102599.06
2023-04-02T08:11:34.328Z,102603.95
2023-04-02T08:14:40.453Z,102608.09
2023-04-02T08:17:31.656Z,102606.26
2023-04-02T08:20:37.262Z,102607.45
2023-04-02T08:23:30.664Z,102614.46
2023-04-02T08:26:31.260Z,102616.47
2023-04-02T08:29:33.640Z,102613.14
2023-04-02T08:32:32.875Z,102600.77
2023-04-02T08:35:27.358Z,102586.77
2023-04-02T08:38:22.498Z,102582.91
2023-04-02T08:41:18.478Z,102581.63
2023-04-02T08:44:18.781Z,102584.52
2023-04-02T08:47:09.921Z,102590.65
2023-04-02T08:50:04.186Z,102588.93
2023-04-02T08:52:56.740Z,102590.30
2023-04-02T08:55:50.709Z,102594.26
2023-04-02T08:58:43.106Z,102596.73
2023-04-02T09:01:40.079Z,102599.80
2023-04-02T09:04:41.294Z,102604.05
2023-04-02T09:07:35.408Z,102612.84
2023-04-02T09:10:35.881Z,102615.27
2023-04-02T09:13:29.326Z,102616.30
2023-04-02T09:16:25.633Z,102616.23
2023-04-02T09:19:18.367Z,102619.38
2023-04-02T09:22:10.328Z,102617.64
2023-04-02T09:25:01.545Z,102618.87
2023-04-02T09:27:53.720Z,102619.61
2023-04-02T09:30:48.349Z,102620.18
2023-04-02T09:33:54.822Z,102619.19
2023-04-02T09:36:48.141Z,102620.95
2023-04-02T09:39:41.229Z,102622.11
2023-04-02T09:42:35.232Z,102630.99
2023-04-02T09:45:28.767Z,102630.69
2023-04-02T09:48:26.789Z,102635.77
2023-04-02T09:51:20.333Z,102640.27
2023-04-02T09:54:15.487Z,102644.77
2023-04-02T09:57:06.645Z,102649.79
2023-04-02T10:00:21.845Z,102651.00
2023-04-02T10:03:26.947Z,102650.76
2023-04-02T10:06:17.383Z,102652.05
2023-04-02T10:09:32.615Z,102654.15
2023-04-02T10:12:26.086Z,102657.10
2023-04-02T10:15:19.299Z,102659.48
2023-04-02T10:18:14.477Z,102657.12
2023-04-02T10:21:05.792Z,102657.48
2023-04-02T10:23:58.524Z,102655.61
2023-04-02T10:26:55.194Z,102658.17
2023-04-02T10:30:02.800Z,102663.86
2023-04-02T10:32:57.751Z,102666.65
2023-04-02T10:35:54.279Z,102666.06
2023-04-02T10:38:48.445Z,102668.58
2023-04-02T10:41:42.391Z,102669.06
2023-04-02T10:44:47.206Z,102669.58
2023-04-02T10:47:41.722Z,102669.69
2023-04-02T10:50:40.254Z,102667.83
2023-04-02T10:53:35.065Z,102667.31
2023-04-02T10:56:29.827Z,102672.21
2023-04-02T10:59:26.378Z,102671.33
2023-04-02T11:02:32.121Z,102670.27
2023-04-02T11:05:29.436Z,102668.28
2023-04-02T11:08:25.878Z,102671.99
2023-04-02T11:11:20.068Z,102672.14
2023-04-02T11:14:14.441Z,102671.13
2023-04-02T11:17:05.321Z,102669.85
2023-04-02T11:19:56.274Z,102674.77
2023-04-02T11:22:47.625Z,102676.02
2023-04-02T11:25:38.044Z,102679.08
2023-04-02T11:28:31.034Z,102675.60
2023-04-02T11:31:22.974Z,102674.77
2023-04-02T11:34:38.910Z,102673.96
2023-04-02T11:37:34.197Z,102673.53
2023-04-02T11:40:45.000Z,102675.49
2023-04-02T11:43:52.303Z,102676.28
2023-04-02T11:46:45.626Z,102675.39
2023-04-02T11:49:36.629Z,102678.59
2023-04-02T11:52:29.046Z,102679.80
2023-04-02T11:55:33.222Z,102676.02
2023-04-02T11:58:49.216Z,102674.64
2023-04-02T12:01:50.533Z,102670.28
2023-04-02T12:05:04.545Z,102661.82
2023-04-02T12:08:11.367Z,102659.80
2023-04-02T12:11:02.659Z,102659.11
2023-04-02T12:13:53.856Z,102663.23
2023-04-02T12:16:44.022Z,102665.05
2023-04-02T12:19:34.465Z,102662.16
2023-04-02T12:22:25.710Z,102657.86
2023-04-02T12:25:24.639Z,102660.13
2023-04-02T12:28:19.992Z,102660.91
2023-04-02T12:31:17.844Z,102661.92
2023-04-02T12:34:15.430Z,102667.63
2023-04-02T12:37:07.210Z,102668.09
2023-04-02T12:39:58.655Z,102669.64
2023-04-02T12:42:48.726Z,102674.63
2023-04-02T12:45:39.966Z,102680.24
2023-04-02T12:48:31.385Z,102688.20
2023-04-02T12:51:25.767Z,102687.21
2023-04-02T12:54:20.602Z,102683.81
2023-04-02T12:57:24.642Z,102678.92
2023-04-02T13:00:36.262Z,102676.49
2023-04-02T13:03:29.192Z,102670.28
2023-04-02T13:06:24.470Z,102668.22
2023-04-02T13:09:29.621Z,102669.33
2023-04-02T13:12:33.980Z,102668.55
2023-04-02T13:15:26.651Z,102665.77
2023-04-02T13:18:23.266Z,102667.15
2023-04-02T13:21:28.506Z,102670.65
2023-04-02T13:24:19.291Z,102667.35
2023-04-02T13:27:12.767Z,102658.55
2023-04-02T13:30:09.815Z,102651.41
2023-04-02T13:33:00.155Z,102651.16
2023-04-02T13:35:51.083Z,102651.91
2023-04-02T13:38:41.346Z,102650.41
2023-04-02T13:41:32.745Z,102650.50
2023-04-02T13:44:26.103Z,102650.73
2023-04-02T13:47:17.214Z,102653.27
2023-04-02T13:50:17.090Z,102655.16
2023-04-02T13:53:14.657Z,102655.73
2023-04-02T13:56:08.627Z,102656.53
2023-04-02T13:58:59.286Z,102654.89
2023-04-02T14:01:51.067Z,102660.88
2023-04-02T14:04:44.539Z,102664.48
2023-04-02T14:07:50.965Z,102667.63
2023-04-02T14:10:56.306Z,102670.45
2023-04-02T14:14:04.364Z,102669.55
2023-04-02T14:17:00.906Z,102670.31
2023-04-02T14:20:08.762Z,102671.60
2023-04-02T14:23:07.047Z,102669.86
2023-04-02T14:26:02.438Z,102662.85
2023-04-02T14:28:57.867Z,102664.13
2023-04-02T14:31:50.082Z,102663.17
2023-04-02T14:34:47.350Z,102661.48
2023-04-02T14:37:41.331Z,102665.05
2023-04-02T14:40:38.349Z,102675.91
2023-04-02T14:43:32.086Z,102676.14
2023-04-02T14:46:26.044Z,102675.30
2023-04-02T14:49:23.112Z,102673.72
2023-04-02T14:52:15.141Z,102671.29
2023-04-02T14:55:11.785Z,102669.16
2023-04-02T14:58:06.634Z,102664.87
2023-04-02T15:01:03.959Z,102661.77
2023-04-02T15:03:57.802Z,102666.20
2023-04-02T15:06:50.475Z,102667.27
2023-04-02T15:09:43.636Z,102663.06
2023-04-02T15:12:37.506Z,102666.17
2023-04-02T15:15:40.306Z,102668.65
2023-04-02T15:18:31.334Z,102666.05
2023-04-02T15:21:49.818Z,102663.06
2023-04-02T15:24:51.035Z,102664.59
2023-04-02T15:27:55.713Z,102661.17
2023-04-02T15:30:46.610Z,102661.28
2023-04-02T15:33:59.504Z,102659.34
2023-04-02T15:37:06.246Z,102658.52
2023-04-02T15:40:04.744Z,102655.23
2023-04-02T15:43:00.049Z,102652.65
2023-04-02T15:45:53.084Z,102650.55
2023-04-02T15:49:09.157Z,102650.33
2023-04-02T15:52:06.858Z,102648.79
2023-04-02T15:55:12.409Z,102643.98
2023-04-02T15:58:22.087Z,102646.31
2023-04-02T16:01:22.346Z,102647.36
2023-04-02T16:04:29.266Z,102650.14
2023-04-02T16:07:25.553Z,102646.16
2023-04-02T16:10:30.219Z,102647.35
2023-04-02T16:13:28.294Z,102650.78
2023-04-02T16:16:20.858Z,102650.58
2023-04-02T16:19:18.729Z,102647.15
2023-04-02T16:22:13.387Z,102648.53
2023-04-02T16:25:16.067Z,102650.16
2023-04-02T16:28:15.268Z,102650.59
2023-04-02T16:31:12.103Z,102650.23
2023-04-02T16:34:08.009Z,102646.47
2023-04-02T16:37:01.656Z,102651.02
2023-04-02T16:39:54.469Z,102656.01
2023-04-02T16:42:54.553Z,102656.89
2023-04-02T16:45:50.462Z,102658.73
2023-04-02T16:48:45.762Z,102656.98
2023-04-02T16:51:39.706Z,102655.36
2023-04-02T16:54:32.538Z,102654.56
2023-04-02T16:57:40.901Z,102650.88
2023-04-02T17:00:37.247Z,102653.21
2023-04-02T17:03:37.659Z,102653.34
2023-04-02T17:06:33.852Z,102650.98
2023-04-02T17:09:34.714Z,102647.19
2023-04-02T17:12:38.512Z,102648.59
2023-04-02T17:15:34.897Z,102647.58
2023-04-02T17:18:26.740Z,102647.86
2023-04-02T17:21:26.361Z,102649.69
2023-04-02T17:24:42.085Z,102650.77
2023-04-02T17:27:34.383Z,102651.28
2023-04-02T17:30:30.775Z,102648.65
2023-04-02T17:33:32.315Z,102653.83
2023-04-02T17:36:44.915Z,102657.48
2023-04-02T17:39:59.591Z,102658.11
2023-04-02T17:43:02.830Z,102659.51
2023-04-02T17:45:54.443Z,102670.09
2023-04-02T17:48:47.363Z,102669.65
2023-04-02T17:51:53.291Z,102671.39
2023-04-02T17:55:03.554Z,102669.61
2023-04-02T17:58:01.530Z,102671.08
2023-04-02T18:01:13.944Z,102669.38
2023-04-02T18:04:23.214Z,102673.14
2023-04-02T18:07:22.523Z,102672.05
2023-04-02T18:10:26.466Z,102672.75
2023-04-02T18:13:34.803Z,102671.73
2023-04-02T18:16:48.808Z,102673.52
2023-04-02T18:19:55.510Z,102676.86
2023-04-02T18:22:52.452Z,102680.09
2023-04-02T18:25:55.333Z,102677.36
2023-04-02T18:29:01.363Z,102675.16
2023-04-02T18:32:05.988Z,102676.32
2023-04-02T18:35:07.082Z,102673.65
2023-04-02T18:38:02.853Z,102672.64
2023-04-02T18:41:44.734Z,102673.58
2023-04-02T18:44:52.071Z,102671.25
2023-04-02T18:48:09.071Z,102672.08
2023-04-02T18:51:15.194Z,102671.58
2023-04-02T18:54:23.766Z,102668.54
2023-04-02T18:57:29.982Z,102666.05
2023-04-02T19:00:36.786Z,102666.96
2023-04-02T19:03:50.367Z,102671.70
2023-04-02T19:07:03.493Z,102678.95
2023-04-02T19:09:58.373Z,102677.04
2023-04-02T19:13:14.988Z,102680.71
2023-04-02T19:16:22.834Z,102685.08
2023-04-02T19:19:38.436Z,102696.04
2023-04-02T19:22:36.045Z,102696.25
2023-04-02T19:25:54.870Z,102696.17
2023-04-02T19:28:52.918Z,102695.82
2023-04-02T19:32:08.986Z,102697.43
2023-04-02T19:35:22.006Z,102697.21
2023-04-02T19:38:42.617Z,102698.28
2023-04-02T19:41:54.295Z,102695.58
2023-04-02T19:45:05.339Z,102699.79
2023-04-02T19:48:13.528Z,102700.25
2023-04-02T19:51:13.919Z,102699.59
2023-04-02T19:54:07.425Z,102694.66
2023-04-02T19:57:18.003Z,102692.13
2023-04-02T20:00:15.086Z,102693.61
2023-04-02T20:03:25.472Z,102693.25
2023-04-02T20:06:36.071Z,102693.70
2023-04-02T20:09:46.736Z,102696.05
2023-04-02T20:12:50.686Z,102698.42
2023-04-02T20:16:02.011Z,102699.98
2023-04-02T20:19:12.405Z,102692.91
2023-04-02T20:22:15.696Z,102692.42
2023-04-02T20:25:18.812Z,102689.33
2023-04-02T20:28:23.201Z,102686.07
2023-04-02T20:31:33.726Z,102685.17
2023-04-02T20:34:38.057Z,102686.56
2023-04-02T20:37:29.555Z,102691.46
2023-04-02T20:40:41.944Z,102690.92
2023-04-02T20:43:34.910Z,102686.38
2023-04-02T20:46:25.792Z,102686.88
2023-04-02T20:49:36.218Z,102686.30
2023-04-02T20:52:30.421Z,102688.39
2023-04-02T20:55:21.801Z,102691.08
2023-04-02T20:58:28.890Z,102689.83
2023-04-02T21:01:27.611Z,102691.61
2023-04-02T21:04:22.119Z,102689.71
2023-04-02T21:07:15.022Z,102688.37
2023-04-02T21:10:25.562Z,102690.10
2023-04-02T21:13:31.967Z,102693.43
2023-04-02T21:16:42.673Z,102697.88
2023-04-02T21:19:51.438Z,102700.05
2023-04-02T21:22:55.912Z,102704.00
2023-04-02T21:25:58.179Z,102708.45
2023-04-02T21:29:12.342Z,102704.09
2023-04-02T21:32:11.121Z,102701.60
2023-04-02T21:35:29.228Z,102700.50
2023-04-02T21:38:34.814Z,102698.50
2023-04-02T21:41:32.081Z,102700.64
2023-04-02T21:44:33.050Z,102703.04
2023-04-02T21:47:26.295Z,102704.17
2023-04-02T21:50:25.972Z,102700.73
2023-04-02T21:53:30.793Z,102699.74
2023-04-02T21:56:23.201Z,102697.56
2023-04-02T21:59:24.533Z,102691.52
2023-04-02T22:02:35.100Z,102689.17
2023-04-02T22:05:47.034Z,102682.71
2023-04-02T22:08:39.825Z,102684.10
2023-04-02T22:11:31.553Z,102683.20
2023-04-02T22:14:35.154Z,102682.06
2023-04-02T22:17:28.382Z,102683.52
2023-04-02T22:20:21.934Z,102678.67
2023-04-02T22:23:35.637Z,102676.94
2023-04-02T22:26:27.592Z,102682.38
2023-04-02T22:29:38.195Z,102686.11
2023-04-02T22:32:29.058Z,102688.77
2023-04-02T22:35:19.555Z,102687.69
2023-04-02T22:38:10.322Z,102685.90
2023-04-02T22:41:07.675Z,102681.23
2023-04-02T22:43:58.245Z,102681.31
2023-04-02T22:46:52.630Z,102683.33
2023-04-02T22:50:04.072Z,102682.60
2023-04-02T22:53:03.085Z,102682.55
2023-04-02T22:55:53.975Z,102682.20
2023-04-02T22:58:46.164Z,102679.90
2023-04-02T23:01:47.678Z,102683.88
2023-04-02T23:04:40.643Z,102685.02
2023-04-02T23:07:30.960Z,102688.86
2023-04-02T23:10:24.425Z,102690.48
2023-04-02T23:13:58.170Z,102689.33
2023-04-02T23:16:55.070Z,102697.48
2023-04-02T23:19:59.242Z,102696.22
2023-04-02T23:23:02.630Z,102692.77
2023-04-02T23:26:14.123Z,102689.55
2023-04-02T23:29:21.022Z,102687.74
2023-04-02T23:32:25.112Z,102683.91
2023-04-02T23:35:28.358Z,102675.95
2023-04-02T23:38:22.002Z,102679.61
2023-04-02T23:41:32.906Z,102672.90
2023-04-02T23:44:43.345Z,102663.77
2023-04-02T23:47:56.635Z,102654.61
2023-04-02T23:51:03.873Z,102651.71
2023-04-02T23:53:56.758Z,102651.33
2023-04-02T23:57:07.189Z,102643.25
